Time;durP1;ratioP1;P1;durP2;ratioP2;P2;SDS_P1;SDS_P2;PMS_P1;PMS_P2;Temp;Humidity;BMP_temperature;BMP_pressure;BME280_temperature;BME280_humidity;BME280_pressure;Samples;Min_cycle;Max_cycle;Signal;HPM_P1;HPM_P2
2023/07/25 09:26:51;;;;;;;5.80;1.30;;;25.50;60.80;;;;;;5057937;28;20357;-86
2023/07/25 09:29:17;;;;;;;2.35;1.23;;;25.50;61.90;;;;;;5047718;28;20021;-86
2023/07/25 09:31:46;;;;;;;2.13;0.90;;;25.30;61.10;;;;;;5048634;28;20120;-85
2023/07/25 09:34:17;;;;;;;1.73;1.10;;;24.40;63.50;;;;;;5048996;28;20025;-85
2023/07/25 09:36:47;;;;;;;3.97;1.25;;;23.60;65.50;;;;;;5048677;28;20029;-85
2023/07/25 09:39:13;;;;;;;1.67;1.00;;;23.60;67.90;;;;;;5048689;28;20071;-86
2023/07/25 09:41:39;;;;;;;4.18;1.25;;;24.70;62.80;;;;;;5048637;28;20040;-84
2023/07/25 09:44:05;;;;;;;8.63;1.33;;;25.80;61.70;;;;;;5048643;28;20025;-86
2023/07/25 09:46:32;;;;;;;4.95;1.30;;;26.90;59.30;;;;;;5069204;22;20053;-81
2023/07/25 09:48:57;;;;;;;9.35;1.50;;;26.70;55.10;;;;;;5047257;28;20104;-80
2023/07/25 09:51:23;;;;;;;4.57;1.38;;;25.80;57.20;;;;;;5047213;28;20422;-81
2023/07/25 09:53:53;;;;;;;6.05;1.40;;;25.20;61.10;;;;;;5046078;28;20079;-83
2023/07/25 09:56:24;;;;;;;5.40;1.70;;;24.10;62.20;;;;;;5039935;28;20017;-82
2023/07/25 09:58:51;;;;;;;4.90;1.70;;;22.70;66.30;;;;;;5047401;28;20650;-80
2023/07/25 10:01:17;;;;;;;6.60;1.63;;;21.50;73.00;;;;;;5046143;28;20025;-80
2023/07/25 10:03:44;;;;;;;2.65;1.55;;;20.50;77.20;;;;;;5047341;28;20482;-79
2023/07/25 10:06:11;;;;;;;8.52;2.38;;;20.10;80.10;;;;;;5045679;28;20473;-78
2023/07/25 10:08:44;;;;;;;4.88;2.10;;;19.60;90.00;;;;;;5047203;28;20021;-78
2023/07/25 10:11:13;;;;;;;4.38;2.15;;;19.30;92.10;;;;;;5046943;28;20031;-78
2023/07/25 10:13:42;;;;;;;3.33;1.88;;;19.00;92.30;;;;;;5047215;28;20025;-80
2023/07/25 10:16:10;;;;;;;3.50;1.90;;;18.90;92.50;;;;;;5046656;28;20021;-79
2023/07/25 10:18:35;;;;;;;2.78;1.80;;;18.90;94.30;;;;;;5046605;28;20021;-81
2023/07/25 10:21:02;;;;;;;6.55;1.77;;;18.70;93.00;;;;;;5047476;28;20040;-80
2023/07/25 10:23:33;;;;;;;5.65;2.28;;;18.60;91.10;;;;;;5046898;28;20492;-80
2023/07/25 10:26:12;;;;;;;4.03;1.63;;;18.40;92.00;;;;;;5046595;28;20115;-81
2023/07/25 10:28:38;;;;;;;2.25;1.80;;;18.50;92.60;;;;;;5046622;28;20100;-84
2023/07/25 10:31:08;;;;;;;3.58;2.10;;;18.60;93.80;;;;;;5046689;28;20097;-83
2023/07/25 10:33:38;;;;;;;3.97;1.80;;;19.20;93.00;;;;;;5040880;28;20030;-89
2023/07/25 10:36:04;;;;;;;3.05;1.58;;;20.20;93.40;;;;;;5045861;28;20017;-89
2023/07/25 10:38:32;;;;;;;6.93;3.55;;;21.50;90.10;;;;;;5035024;28;20028;-85
2023/07/25 10:41:09;;;;;;;4.10;1.88;;;22.70;79.50;;;;;;5034132;28;20017;-89
2023/07/25 10:43:53;;;;;;;8.52;2.00;;;23.50;74.30;;;;;;5028495;28;20113;-88
2023/07/25 10:46:22;;;;;;;4.32;1.92;;;24.20;71.90;;;;;;5045472;22;20441;-92
2023/07/25 10:48:52;;;;;;;3.05;1.60;;;24.50;66.40;;;;;;5037872;28;20025;-88
2023/07/25 10:51:20;;;;;;;4.60;2.10;;;24.30;67.80;;;;;;5039602;28;20014;-90
2023/07/25 10:54:04;;;;;;;3.80;1.58;;;24.10;70.70;;;;;;5037534;28;20237;-90
2023/07/25 10:56:29;;;;;;;3.35;1.55;;;24.70;68.40;;;;;;5039770;28;20017;-90
2023/07/25 10:59:05;;;;;;;1.65;0.95;;;24.60;55.30;;;;;;5037709;28;20212;-90
2023/07/25 11:01:36;;;;;;;3.80;1.50;;;24.00;57.50;;;;;;5035260;28;20049;-89
2023/07/25 11:04:30;;;;;;;5.30;1.55;;;23.70;62.70;;;;;;5034850;28;20044;-90
2023/07/25 11:06:57;;;;;;;6.25;2.40;;;23.20;66.30;;;;;;5034267;28;20136;-89
2023/07/25 11:09:24;;;;;;;5.63;1.80;;;22.90;69.20;;;;;;5035098;28;20485;-86
2023/07/25 11:11:52;;;;;;;4.82;2.30;;;22.80;70.40;;;;;;5034611;28;20106;-90
2023/07/25 11:14:18;;;;;;;3.70;1.88;;;22.60;72.80;;;;;;5035771;28;20120;-89
2023/07/25 11:16:46;;;;;;;6.28;3.53;;;22.50;73.90;;;;;;5035833;28;20303;-91
2023/07/25 11:19:14;;;;;;;5.45;2.08;;;22.20;74.10;;;;;;5035048;28;20473;-90
2023/07/25 11:21:41;;;;;;;2.28;1.90;;;22.60;74.50;;;;;;5034443;28;20418;-87
2023/07/25 11:24:08;;;;;;;6.30;1.70;;;23.40;68.70;;;;;;5033133;28;20021;-87
2023/07/25 11:26:37;;;;;;;1.75;1.38;;;23.40;64.40;;;;;;5032817;28;20033;-85
2023/07/25 11:29:08;;;;;;;3.90;1.80;;;23.40;66.60;;;;;;5025030;28;20101;-86
2023/07/25 11:31:36;;;;;;;3.95;1.95;;;23.10;64.60;;;;;;5030875;28;20025;-84
2023/07/25 11:34:13;;;;;;;3.47;2.17;;;22.60;66.30;;;;;;5032346;28;20025;-83
2023/07/25 11:36:42;;;;;;;4.32;1.98;;;22.20;69.70;;;;;;5032364;28;20052;-84
2023/07/25 11:39:10;;;;;;;4.75;2.35;;;22.10;73.20;;;;;;5032820;28;20022;-86
2023/07/25 11:41:37;;;;;;;4.90;2.40;;;21.90;75.10;;;;;;5032360;28;20104;-86
2023/07/25 11:44:10;;;;;;;4.07;2.05;;;21.60;78.10;;;;;;5030927;28;20025;-87
2023/07/25 11:46:39;;;;;;;3.30;2.10;;;21.30;73.60;;;;;;5050489;23;20048;-86
2023/07/25 11:49:05;;;;;;;4.32;2.00;;;21.20;75.20;;;;;;5019698;28;20061;-87
2023/07/25 11:51:32;;;;;;;4.78;2.50;;;21.20;73.60;;;;;;5024727;28;20026;-84
2023/07/25 11:53:58;;;;;;;6.00;2.40;;;21.10;76.60;;;;;;5031537;28;20025;-86
2023/07/25 11:56:24;;;;;;;3.40;2.08;;;21.70;77.60;;;;;;5014142;28;20113;-87
2023/07/25 11:58:50;;;;;;;5.43;2.22;;;23.30;72.00;;;;;;5013428;28;20105;-86
2023/07/25 12:01:18;;;;;;;5.75;2.30;;;24.70;68.40;;;;;;5014567;28;20133;-85
2023/07/25 12:03:50;;;;;;;7.10;2.10;;;24.70;66.50;;;;;;5013927;28;20014;-84
2023/07/25 12:06:29;;;;;;;2.83;1.92;;;24.00;67.20;;;;;;5013026;28;20052;-87
2023/07/25 12:08:55;;;;;;;8.40;3.08;;;23.40;68.40;;;;;;5013883;28;20197;-89
2023/07/25 12:11:21;;;;;;;5.95;2.90;;;22.50;76.10;;;;;;5015848;28;20479;-87
2023/07/25 12:13:47;;;;;;;7.63;3.30;;;21.90;79.70;;;;;;5020294;28;20044;-87
2023/07/25 12:16:25;;;;;;;7.32;2.90;;;21.60;80.90;;;;;;5016496;28;20022;-88
2023/07/25 12:18:56;;;;;;;4.60;3.10;;;21.40;82.70;;;;;;5047740;28;20028;-85
2023/07/25 12:21:27;;;;;;;4.10;3.10;;;21.30;83.40;;;;;;5016967;28;20022;-87
2023/07/25 12:23:54;;;;;;;;;;;21.40;79.50;;;;;;5022232;28;20431;-89
2023/07/25 12:26:21;;;;;;;8.60;2.60;;;21.60;80.80;;;;;;5019804;28;20172;-87
2023/07/25 12:28:47;;;;;;;5.40;2.45;;;21.80;79.00;;;;;;5014195;28;20057;-85
2023/07/25 12:31:13;;;;;;;4.82;2.50;;;21.90;77.40;;;;;;5013718;28;20044;-87
2023/07/25 12:33:41;;;;;;;5.38;2.25;;;21.70;75.20;;;;;;5013055;28;20483;-87
2023/07/25 12:36:06;;;;;;;4.60;2.15;;;21.70;77.40;;;;;;5014194;28;20101;-86
2023/07/25 12:38:32;;;;;;;6.05;2.10;;;21.70;78.80;;;;;;5013821;28;20544;-85
2023/07/25 12:40:58;;;;;;;3.10;2.28;;;21.60;74.20;;;;;;5012678;28;20022;-88
2023/07/25 12:43:24;;;;;;;5.10;1.85;;;21.60;75.10;;;;;;5014495;28;20026;-88
2023/07/25 12:48:20;;;;;;;3.38;2.10;;;22.10;71.90;;;;;;5014307;28;20100;-87
2023/07/25 12:50:46;;;;;;;6.57;2.10;;;22.30;72.50;;;;;;4993437;28;20029;-86
2023/07/25 12:53:12;;;;;;;4.20;1.83;;;23.50;73.20;;;;;;5010866;28;20470;-87
2023/07/25 12:55:38;;;;;;;1.70;1.60;;;24.80;68.00;;;;;;5011768;28;20514;-89
2023/07/25 12:58:04;;;;;;;2.22;1.90;;;26.40;66.00;;;;;;5011763;28;20018;-88
2023/07/25 13:00:30;;;;;;;4.18;1.52;;;28.30;54.70;;;;;;5003996;28;20028;-86
2023/07/25 13:02:58;;;;;;;5.85;1.60;;;29.70;51.80;;;;;;5011203;28;20034;-87
2023/07/25 13:05:27;;;;;;;2.75;1.45;;;29.60;46.60;;;;;;5010861;28;20104;-87
2023/07/25 13:07:53;;;;;;;2.97;1.80;;;28.50;45.90;;;;;;5011067;28;20126;-88
2023/07/25 13:10:18;;;;;;;2.53;1.70;;;27.30;49.50;;;;;;5010844;28;20105;-86
2023/07/25 13:12:44;;;;;;;5.53;2.28;;;26.00;47.50;;;;;;5011571;28;20030;-88
2023/07/25 13:15:10;;;;;;;5.30;1.85;;;24.50;52.50;;;;;;5010603;28;20426;-86
2023/07/25 13:17:36;;;;;;;2.85;2.25;;;23.30;56.70;;;;;;5010555;28;20033;-86
2023/07/25 13:20:04;;;;;;;3.30;2.28;;;22.60;59.20;;;;;;5010987;28;20475;-87
2023/07/25 13:22:30;;;;;;;4.35;2.00;;;22.30;62.30;;;;;;5010421;28;20052;-88
2023/07/25 13:24:56;;;;;;;3.47;1.85;;;22.50;59.40;;;;;;5010065;28;20077;-87
2023/07/25 13:27:26;;;;;;;3.72;2.10;;;23.70;57.50;;;;;;5010696;28;20017;-87
2023/07/25 13:29:56;;;;;;;4.72;2.10;;;24.90;52.50;;;;;;5010602;28;20018;-86
2023/07/25 13:32:22;;;;;;;5.00;2.25;;;25.40;49.60;;;;;;5009329;28;20376;-90
2023/07/25 13:34:47;;;;;;;3.05;2.20;;;25.40;52.40;;;;;;5011016;28;20097;-86
2023/07/25 13:37:14;;;;;;;3.80;1.90;;;25.30;52.70;;;;;;5003945;28;20032;-86
2023/07/25 13:39:40;;;;;;;3.35;1.90;;;25.10;51.90;;;;;;5010798;28;20025;-87
2023/07/25 13:42:06;;;;;;;3.83;2.30;;;24.80;51.90;;;;;;5010456;28;20041;-87
2023/07/25 13:44:31;;;;;;;3.65;2.17;;;24.80;50.30;;;;;;5010748;28;20022;-87
2023/07/25 13:47:02;;;;;;;4.15;2.00;;;25.80;51.70;;;;;;5046432;22;20041;-88
2023/07/25 13:49:28;;;;;;;4.63;2.10;;;27.40;46.70;;;;;;5034551;28;20047;-89
2023/07/25 13:51:54;;;;;;;3.35;2.00;;;27.70;43.50;;;;;;5051744;28;20176;-91
2023/07/25 13:54:20;;;;;;;3.45;1.88;;;27.20;41.30;;;;;;5051284;28;20545;-87
2023/07/25 13:56:45;;;;;;;2.90;2.05;;;26.30;42.30;;;;;;5057328;28;20381;-88
2023/07/25 13:59:12;;;;;;;3.40;1.92;;;25.50;43.50;;;;;;5059603;28;20350;-87
2023/07/25 14:01:38;;;;;;;4.18;2.00;;;24.80;45.10;;;;;;5058899;28;20405;-89
2023/07/25 14:04:03;;;;;;;8.02;2.13;;;24.40;45.50;;;;;;5055785;28;20025;-88
2023/07/25 14:06:29;;;;;;;3.97;2.05;;;24.00;48.20;;;;;;5033335;28;20032;-88
2023/07/25 14:08:55;;;;;;;3.63;2.38;;;23.70;49.80;;;;;;5063039;28;20063;-88
2023/07/25 14:11:21;;;;;;;3.80;2.30;;;23.60;48.70;;;;;;5061972;28;20092;-87
2023/07/25 14:13:47;;;;;;;4.65;2.30;;;23.50;50.30;;;;;;5059724;28;20052;-88
2023/07/25 14:16:13;;;;;;;4.32;2.17;;;23.30;48.00;;;;;;5063029;28;20021;-85
2023/07/25 14:18:38;;;;;;;4.22;2.33;;;23.10;49.70;;;;;;5045123;28;20036;-86
2023/07/25 14:21:05;;;;;;;2.85;2.17;;;23.40;50.90;;;;;;5062839;28;20099;-86
2023/07/25 14:23:30;;;;;;;2.58;2.10;;;23.40;50.00;;;;;;5064960;28;20020;-87
2023/07/25 14:25:56;;;;;;;3.65;2.28;;;23.90;49.30;;;;;;5058257;28;20484;-89
2023/07/25 14:28:21;;;;;;;5.05;2.53;;;25.40;46.30;;;;;;5062874;28;20134;-88
2023/07/25 14:30:47;;;;;;;3.53;2.10;;;26.70;43.10;;;;;;5067361;28;20021;-89
2023/07/25 14:33:14;;;;;;;5.30;2.50;;;26.70;43.90;;;;;;5058607;28;20028;-87
2023/07/25 14:35:41;;;;;;;3.13;2.20;;;26.20;43.70;;;;;;5061240;28;20151;-89
2023/07/25 14:38:07;;;;;;;3.05;2.50;;;25.50;46.30;;;;;;5067567;28;20024;-85
2023/07/25 14:40:32;;;;;;;5.03;2.10;;;24.80;47.40;;;;;;5060805;28;20023;-84
2023/07/25 14:42:58;;;;;;;3.38;2.30;;;24.40;51.10;;;;;;5064591;28;20154;-84
2023/07/25 14:45:23;;;;;;;5.57;2.25;;;24.20;52.70;;;;;;5059154;28;20381;-85
2023/07/25 14:47:49;;;;;;;3.20;1.95;;;23.90;53.10;;;;;;5049875;28;20066;-87
2023/07/25 14:50:15;;;;;;;7.18;2.53;;;23.60;52.80;;;;;;5063323;28;20047;-83
2023/07/25 14:52:41;;;;;;;3.53;2.30;;;23.60;55.70;;;;;;5062630;28;20025;-86
2023/07/25 14:55:07;;;;;;;3.78;2.22;;;23.10;56.90;;;;;;5062866;28;20078;-85
2023/07/25 14:57:33;;;;;;;4.80;2.55;;;22.60;57.30;;;;;;5062023;28;20473;-83
2023/07/25 14:59:58;;;;;;;4.05;2.15;;;22.10;59.30;;;;;;5065901;28;20761;-87
2023/07/25 15:02:27;;;;;;;2.45;1.80;;;21.80;61.20;;;;;;5060060;28;20488;-87
2023/07/25 15:04:52;;;;;;;3.78;2.03;;;21.40;62.10;;;;;;5042942;28;20058;-87
2023/07/25 15:07:18;;;;;;;3.85;2.22;;;21.20;65.00;;;;;;5062069;28;20067;-86
2023/07/25 15:09:44;;;;;;;3.80;2.00;;;21.00;66.00;;;;;;5052425;28;20057;-86
2023/07/25 15:12:09;;;;;;;3.33;2.28;;;20.70;66.30;;;;;;5048931;28;20098;-87
2023/07/25 15:14:35;;;;;;;3.53;2.38;;;20.70;69.90;;;;;;5061866;28;20109;-87
2023/07/25 15:17:01;;;;;;;3.80;2.22;;;20.80;70.10;;;;;;5064326;28;20017;-86
2023/07/25 15:19:27;;;;;;;4.50;2.22;;;20.70;69.70;;;;;;5065812;28;20035;-84
2023/07/25 15:21:52;;;;;;;6.57;2.10;;;20.60;72.20;;;;;;5063354;28;20456;-85
2023/07/25 15:24:18;;;;;;;6.00;2.30;;;20.50;73.80;;;;;;5059627;28;20085;-87
2023/07/25 15:26:43;;;;;;;6.10;2.72;;;20.40;74.80;;;;;;5058817;28;20036;-88
2023/07/25 15:29:09;;;;;;;4.32;2.53;;;20.30;74.80;;;;;;5061230;28;20083;-89
2023/07/25 15:31:35;;;;;;;9.27;2.63;;;20.20;77.20;;;;;;5063160;28;20597;-84
2023/07/25 15:34:00;;;;;;;5.97;2.70;;;20.20;78.80;;;;;;5060848;28;20025;-85
2023/07/25 15:36:26;;;;;;;5.45;2.08;;;20.20;78.80;;;;;;5060775;28;20104;-84
2023/07/25 15:38:51;;;;;;;6.05;2.17;;;20.90;74.80;;;;;;5059775;28;20474;-88
2023/07/25 15:41:17;;;;;;;6.63;2.50;;;21.30;71.20;;;;;;5059348;28;20028;-84
2023/07/25 15:43:43;;;;;;;7.85;2.50;;;21.60;70.30;;;;;;5058602;28;20021;-87
2023/07/25 15:46:11;;;;;;;5.95;1.70;;;21.50;71.80;;;;;;5059899;28;20611;-85
2023/07/25 15:48:37;;;;;;;9.98;3.30;;;20.90;74.00;;;;;;5061167;28;20037;-85
2023/07/25 15:51:03;;;;;;;4.47;2.17;;;20.50;76.30;;;;;;5042655;28;20032;-86
2023/07/25 15:53:28;;;;;;;10.45;2.30;;;20.10;78.80;;;;;;5059601;28;20455;-84
2023/07/25 15:55:54;;;;;;;6.85;2.28;;;19.90;80.10;;;;;;5059135;28;20392;-83
2023/07/25 15:58:20;;;;;;;4.25;1.92;;;19.70;81.00;;;;;;5059223;28;20021;-84
2023/07/25 16:00:45;;;;;;;4.40;2.00;;;19.60;80.70;;;;;;5058369;28;20025;-86
2023/07/25 16:03:11;;;;;;;5.22;2.25;;;19.70;81.30;;;;;;5059111;28;20288;-83
2023/07/25 16:05:37;;;;;;;4.43;1.77;;;19.80;81.40;;;;;;5060101;28;20044;-84
2023/07/25 16:08:02;;;;;;;4.68;2.20;;;19.70;81.60;;;;;;5062006;28;20020;-85
2023/07/25 16:10:28;;;;;;;7.43;2.03;;;19.70;81.70;;;;;;5062765;28;20036;-85
2023/07/25 16:12:54;;;;;;;4.78;2.28;;;19.60;81.10;;;;;;5059188;28;20484;-83
2023/07/25 16:15:19;;;;;;;7.53;2.17;;;19.50;81.60;;;;;;5054750;28;20491;-84
2023/07/25 16:17:45;;;;;;;4.40;2.13;;;19.40;80.70;;;;;;5056244;28;20035;-85
2023/07/25 16:20:11;;;;;;;6.38;2.40;;;19.30;83.60;;;;;;5061754;28;20477;-84
2023/07/25 16:22:36;;;;;;;6.55;2.10;;;19.20;84.80;;;;;;5059140;28;20046;-83
2023/07/25 16:25:02;;;;;;;8.02;2.22;;;19.00;85.50;;;;;;5062990;28;20106;-88
2023/07/25 16:27:28;;;;;;;8.00;2.35;;;18.90;86.30;;;;;;5054061;28;20021;-85
2023/07/25 16:29:53;;;;;;;3.70;1.92;;;18.80;86.30;;;;;;5060633;28;20013;-84
2023/07/25 16:32:19;;;;;;;3.60;2.17;;;18.80;85.70;;;;;;5059229;28;20025;-84
2023/07/25 16:34:45;;;;;;;4.20;2.35;;;18.80;85.50;;;;;;5044252;28;20023;-85
2023/07/25 16:37:10;;;;;;;6.57;2.20;;;18.90;85.50;;;;;;5048294;28;20021;-83
2023/07/25 16:39:36;;;;;;;6.53;2.20;;;18.90;84.90;;;;;;5057257;28;20029;-86
2023/07/25 16:42:02;;;;;;;5.05;3.42;;;18.90;82.90;;;;;;5043615;28;20103;-86
2023/07/25 16:44:27;;;;;;;3.63;2.20;;;18.90;84.20;;;;;;5056204;28;20020;-84
2023/07/25 16:46:53;;;;;;;6.93;2.45;;;18.80;84.60;;;;;;5043778;28;20046;-85
2023/07/25 16:49:19;;;;;;;4.10;2.47;;;18.70;85.10;;;;;;5043947;28;20032;-83
2023/07/25 16:51:45;;;;;;;5.93;2.75;;;18.70;86.50;;;;;;5034596;28;20025;-87
2023/07/25 16:54:10;;;;;;;11.70;2.83;;;18.60;87.90;;;;;;5057062;28;20028;-86
2023/07/25 16:56:36;;;;;;;7.18;3.03;;;18.60;88.30;;;;;;5049040;28;20048;-88
2023/07/25 16:59:02;;;;;;;6.07;2.90;;;18.40;89.60;;;;;;5055626;28;20099;-84
2023/07/25 17:01:27;;;;;;;6.25;3.17;;;18.40;90.00;;;;;;5051375;28;20029;-88
2023/07/25 17:03:53;;;;;;;10.55;3.42;;;18.30;90.70;;;;;;5055740;28;20025;-83
2023/07/25 17:06:18;;;;;;;5.32;3.00;;;18.30;91.00;;;;;;5059667;28;20484;-85
2023/07/25 17:08:45;;;;;;;12.15;2.90;;;18.60;90.70;;;;;;5058255;28;20028;-85
2023/07/25 17:11:14;;;;;;;6.88;2.53;;;19.20;90.20;;;;;;5055431;28;20028;-84
2023/07/25 17:13:40;;;;;;;9.70;3.35;;;19.70;88.20;;;;;;5051747;28;20537;-84
2023/07/25 17:16:06;;;;;;;4.60;2.70;;;19.90;84.70;;;;;;5076810;23;20123;-81
2023/07/25 17:18:31;;;;;;;5.53;2.88;;;20.10;83.20;;;;;;5044583;28;20049;-82
2023/07/25 17:20:57;;;;;;;6.63;2.92;;;20.00;81.40;;;;;;5027060;28;20082;-81
2023/07/25 17:23:23;;;;;;;10.05;2.95;;;19.90;83.00;;;;;;5045328;28;20107;-81
2023/07/25 17:25:49;;;;;;;7.72;2.92;;;19.80;83.40;;;;;;5027350;28;20051;-81
2023/07/25 17:28:15;;;;;;;7.38;2.72;;;19.80;84.60;;;;;;5008021;28;20026;-81
2023/07/25 17:30:41;;;;;;;5.20;2.80;;;19.90;83.70;;;;;;5025938;28;20033;-82
2023/07/25 17:33:07;;;;;;;9.70;2.88;;;19.80;83.50;;;;;;5025480;28;20018;-81
2023/07/25 17:35:32;;;;;;;7.43;3.05;;;20.00;81.90;;;;;;5025891;28;20033;-81
2023/07/25 17:37:58;;;;;;;8.40;2.90;;;20.00;81.30;;;;;;5025516;28;20497;-82
2023/07/25 17:40:23;;;;;;;6.72;2.92;;;20.00;80.20;;;;;;5025590;28;20017;-79
2023/07/25 17:42:49;;;;;;;4.90;2.45;;;19.90;80.80;;;;;;5018850;28;20030;-82
2023/07/25 17:45:15;;;;;;;6.60;2.60;;;19.70;80.50;;;;;;5024518;28;20049;-80
2023/07/25 17:47:40;;;;;;;6.07;3.03;;;19.60;80.90;;;;;;5027130;28;20492;-83
2023/07/25 17:50:07;;;;;;;4.07;2.65;;;19.40;82.00;;;;;;5029545;28;20033;-82
2023/07/25 17:52:32;;;;;;;7.15;2.90;;;19.30;83.80;;;;;;5010840;28;20084;-81
2023/07/25 17:54:58;;;;;;;9.50;3.42;;;19.10;84.30;;;;;;5022031;28;20036;-82
2023/07/25 17:57:23;;;;;;;16.15;3.47;;;18.90;86.20;;;;;;5023095;28;20474;-81
2023/07/25 17:59:49;;;;;;;6.45;2.95;;;18.90;86.80;;;;;;5021285;28;20060;-81
2023/07/25 18:02:15;;;;;;;6.70;2.67;;;18.80;87.30;;;;;;5023946;28;20057;-81
2023/07/25 18:04:40;;;;;;;6.80;3.03;;;18.70;88.70;;;;;;5010996;28;20040;-80
2023/07/25 18:07:06;;;;;;;9.48;2.63;;;18.60;88.80;;;;;;5009772;28;20036;-81
2023/07/25 18:09:32;;;;;;;10.98;3.35;;;18.60;87.70;;;;;;5027469;28;20119;-80
2023/07/25 18:11:57;;;;;;;7.82;3.10;;;18.50;88.80;;;;;;5028944;28;20088;-80
2023/07/25 18:14:23;;;;;;;4.80;2.47;;;18.40;89.40;;;;;;5028770;28;20101;-80
2023/07/25 19:16:22;;;;;;;4.07;2.50;;;17.50;91.30;;;;;;5981659;23;20045;-84
2023/07/25 19:18:48;;;;;;;3.33;2.35;;;17.30;91.80;;;;;;5042664;28;20398;-85
2023/07/25 19:21:13;;;;;;;5.78;2.60;;;17.20;92.60;;;;;;5029428;28;20039;-85
2023/07/25 19:23:39;;;;;;;8.38;2.60;;;17.00;93.10;;;;;;5046817;28;20024;-83
2023/07/25 19:26:05;;;;;;;5.18;2.80;;;16.80;93.40;;;;;;5027625;28;20553;-82
2023/07/25 19:28:31;;;;;;;6.70;2.72;;;16.70;93.50;;;;;;5028074;28;20021;-84
2023/07/25 19:30:57;;;;;;;7.20;2.40;;;16.60;94.10;;;;;;5009553;28;20033;-83
2023/07/25 19:33:25;;;;;;;8.00;3.42;;;16.50;94.70;;;;;;5026368;28;20160;-84
2023/07/25 19:35:55;;;;;;;5.30;2.47;;;16.40;95.40;;;;;;5009470;28;20060;-84
2023/07/25 19:38:22;;;;;;;6.10;2.83;;;16.30;95.40;;;;;;5027482;28;20437;-82
2023/07/25 19:40:48;;;;;;;3.78;2.60;;;16.20;95.60;;;;;;5009230;28;20208;-83
2023/07/25 19:43:14;;;;;;;3.67;2.33;;;16.10;96.20;;;;;;5027552;28;20096;-83
2023/07/25 19:45:39;;;;;;;6.72;3.17;;;15.90;96.70;;;;;;5027906;28;20060;-89
2023/07/25 19:48:05;;;;;;;6.32;2.78;;;15.90;97.20;;;;;;5020784;28;20044;-83
2023/07/25 19:50:31;;;;;;;6.72;2.88;;;15.80;97.10;;;;;;5027345;28;20021;-83
2023/07/25 19:52:57;;;;;;;5.90;2.78;;;15.70;97.20;;;;;;5022998;28;20026;-85
2023/07/25 19:55:22;;;;;;;6.90;2.95;;;15.60;97.80;;;;;;4998474;28;20426;-87
2023/07/25 19:57:49;;;;;;;4.30;2.67;;;15.60;97.90;;;;;;5028090;28;20473;-88
2023/07/25 20:00:15;;;;;;;4.05;2.72;;;15.40;98.20;;;;;;5027440;28;20023;-84
2023/07/25 20:02:41;;;;;;;12.18;3.35;;;15.30;98.60;;;;;;5026215;28;20017;-84
2023/07/25 20:05:07;;;;;;;4.28;2.60;;;15.10;98.70;;;;;;5026577;28;20108;-84
2023/07/25 20:07:32;;;;;;;10.05;3.75;;;15.10;98.70;;;;;;5009949;28;20092;-84
2023/07/25 20:09:58;;;;;;;9.18;4.45;;;15.00;98.90;;;;;;5006018;28;20037;-83
2023/07/25 20:12:24;;;;;;;5.90;3.30;;;14.90;98.80;;;;;;5007523;28;20033;-83
2023/07/25 20:14:49;;;;;;;6.93;3.20;;;14.80;99.10;;;;;;5028027;28;21044;-83
2023/07/25 20:17:15;;;;;;;9.52;3.35;;;14.70;99.40;;;;;;5033895;22;20639;-83
2023/07/25 20:19:41;;;;;;;6.30;3.28;;;14.60;99.50;;;;;;5000271;28;20027;-83
2023/07/25 20:22:06;;;;;;;4.88;3.15;;;14.50;99.50;;;;;;4995320;28;20471;-83
2023/07/25 20:24:32;;;;;;;5.05;3.47;;;14.40;99.80;;;;;;4976675;28;20092;-85
2023/07/25 20:26:58;;;;;;;4.15;3.45;;;14.30;99.80;;;;;;4999102;28;20030;-84
2023/07/25 20:29:23;;;;;;;5.68;3.20;;;14.20;99.90;;;;;;4995729;28;20688;-83
2023/07/25 20:31:49;;;;;;;5.50;3.47;;;14.20;99.90;;;;;;5000388;28;20363;-85
2023/07/25 20:34:14;;;;;;;6.15;3.22;;;14.10;99.90;;;;;;4982024;28;20018;-85
2023/07/25 20:36:40;;;;;;;9.45;3.40;;;14.00;99.90;;;;;;4987978;28;20045;-82
2023/07/25 20:39:06;;;;;;;6.53;3.30;;;14.00;99.90;;;;;;5004300;28;20440;-82
2023/07/25 20:41:32;;;;;;;5.15;3.25;;;14.00;99.90;;;;;;5004603;28;20378;-83
2023/07/25 20:43:58;;;;;;;5.53;3.72;;;13.90;99.90;;;;;;5005023;28;20473;-81
2023/07/25 20:46:24;;;;;;;5.60;3.88;;;13.90;99.90;;;;;;5003112;28;20045;-81
2023/07/25 20:48:50;;;;;;;7.22;3.70;;;13.80;99.90;;;;;;4986497;28;20026;-82
2023/07/25 20:51:15;;;;;;;6.20;3.72;;;13.70;99.90;;;;;;5004291;28;20033;-83
2023/07/25 20:53:41;;;;;;;6.97;3.05;;;13.70;99.90;;;;;;4987006;28;20033;-82
2023/07/25 20:56:07;;;;;;;6.97;3.17;;;13.60;99.90;;;;;;4985844;28;20025;-83
2023/07/25 20:58:33;;;;;;;8.18;3.08;;;13.50;99.90;;;;;;4985938;28;20722;-81
2023/07/25 21:00:59;;;;;;;9.25;2.90;;;13.50;99.90;;;;;;4986752;28;20108;-82
2023/07/25 21:03:25;;;;;;;9.55;3.10;;;13.40;99.90;;;;;;4999757;28;20093;-82
2023/07/25 21:05:50;;;;;;;4.35;2.42;;;13.30;99.90;;;;;;4969639;28;20085;-82
2023/07/25 21:08:16;;;;;;;3.83;2.20;;;13.30;99.90;;;;;;4992463;28;20509;-81
2023/07/25 21:10:42;;;;;;;4.57;3.10;;;13.20;99.90;;;;;;5004112;28;20061;-82
2023/07/25 21:13:07;;;;;;;7.20;2.88;;;13.20;99.90;;;;;;5004019;28;20050;-82
2023/07/25 21:15:33;;;;;;;4.43;2.95;;;13.10;99.90;;;;;;5004145;28;20026;-81
2023/07/25 21:17:59;;;;;;;8.38;2.70;;;13.00;99.90;;;;;;5033757;23;20172;-83
2023/07/25 21:20:24;;;;;;;5.00;2.60;;;12.90;99.90;;;;;;5023467;28;20026;-83
2023/07/25 21:22:51;;;;;;;4.80;2.72;;;12.80;99.90;;;;;;5006099;28;20021;-84
2023/07/25 21:25:16;;;;;;;3.13;2.42;;;12.80;99.90;;;;;;5023582;28;20041;-83
2023/07/25 21:27:42;;;;;;;5.93;2.50;;;12.70;99.90;;;;;;5021219;28;20030;-82
2023/07/25 21:30:08;;;;;;;5.05;3.05;;;12.70;99.90;;;;;;5017102;28;20026;-83
2023/07/25 21:32:34;;;;;;;4.55;2.90;;;12.70;99.90;;;;;;5014548;28;20041;-83
2023/07/25 21:34:59;;;;;;;5.22;2.97;;;12.60;99.90;;;;;;5020053;28;20130;-80
2023/07/25 21:37:25;;;;;;;6.88;2.92;;;12.60;99.90;;;;;;5013984;28;20496;-83
2023/07/25 21:39:51;;;;;;;6.93;3.13;;;12.60;99.90;;;;;;4995142;28;20032;-82
2023/07/25 21:42:17;;;;;;;5.68;3.47;;;12.60;99.90;;;;;;5012419;28;20474;-82
2023/07/25 21:44:43;;;;;;;4.18;2.83;;;12.50;99.90;;;;;;5011330;28;20535;-84
2023/07/25 21:47:08;;;;;;;5.13;2.90;;;12.50;99.90;;;;;;5010533;28;20129;-81
2023/07/25 21:49:34;;;;;;;5.03;2.83;;;12.40;99.90;;;;;;5010335;28;20041;-84
2023/07/25 21:52:00;;;;;;;6.28;2.97;;;12.30;99.90;;;;;;4992362;28;20025;-84
2023/07/25 21:54:25;;;;;;;6.85;2.97;;;12.40;99.90;;;;;;5008553;28;20997;-82
2023/07/25 21:56:51;;;;;;;4.80;3.17;;;12.40;99.90;;;;;;4988936;28;20034;-82
2023/07/25 21:59:17;;;;;;;5.82;3.15;;;12.40;99.90;;;;;;4994745;28;20033;-81
2023/07/25 22:01:42;;;;;;;4.72;2.92;;;12.30;99.90;;;;;;5006306;28;20213;-83
2023/07/25 22:04:08;;;;;;;6.53;3.22;;;12.30;99.90;;;;;;4986617;28;20833;-81
2023/07/25 22:06:35;;;;;;;5.72;3.10;;;12.30;99.90;;;;;;5002414;28;20398;-83
2023/07/25 22:09:00;;;;;;;4.32;2.65;;;12.30;99.90;;;;;;4980751;28;20052;-91
2023/07/25 22:11:26;;;;;;;3.50;2.40;;;12.30;99.90;;;;;;4994993;28;20740;-83
2023/07/25 22:13:52;;;;;;;4.18;2.67;;;12.20;99.90;;;;;;4999387;28;20033;-83
2023/07/25 22:16:17;;;;;;;4.68;2.90;;;12.10;99.90;;;;;;4991667;28;20026;-84
2023/07/25 22:18:43;;;;;;;5.55;2.72;;;12.10;99.90;;;;;;4995513;28;20543;-83
2023/07/25 22:21:09;;;;;;;5.15;2.80;;;12.00;99.90;;;;;;4992742;28;20032;-82
2023/07/25 22:23:34;;;;;;;7.05;2.72;;;11.90;99.90;;;;;;4992100;28;20026;-83
2023/07/25 22:26:04;;;;;;;7.00;2.72;;;11.90;99.90;;;;;;4988967;28;20878;-82
2023/07/25 22:28:30;;;;;;;5.38;2.42;;;11.90;99.90;;;;;;4972374;28;20026;-82
2023/07/25 22:30:59;;;;;;;3.20;2.40;;;11.80;99.90;;;;;;5024755;28;20416;-84
2023/07/25 22:33:25;;;;;;;3.70;2.40;;;11.80;99.90;;;;;;5009271;28;20048;-83
2023/07/25 22:35:51;;;;;;;6.25;2.45;;;11.70;99.90;;;;;;5029174;28;20036;-82
2023/07/25 22:38:16;;;;;;;6.18;3.13;;;11.70;99.90;;;;;;5029020;28;20033;-84
2023/07/25 22:40:42;;;;;;;3.83;2.50;;;11.60;99.90;;;;;;5036579;28;20531;-83
2023/07/25 22:43:08;;;;;;;4.50;2.20;;;11.60;99.90;;;;;;5023258;28;20026;-84
2023/07/25 22:45:33;;;;;;;5.97;3.13;;;11.50;99.90;;;;;;5011906;28;20843;-83
2023/07/25 22:47:59;;;;;;;5.13;2.15;;;11.50;99.90;;;;;;5059575;23;20505;-83
2023/07/25 22:50:24;;;;;;;3.10;1.90;;;11.40;99.90;;;;;;5022510;28;20079;-82
2023/07/25 22:52:50;;;;;;;5.35;1.95;;;11.40;99.90;;;;;;5011382;28;20048;-82
2023/07/25 22:55:18;;;;;;;3.05;2.13;;;11.30;99.90;;;;;;5011435;28;20697;-82
2023/07/25 22:57:44;;;;;;;5.22;2.33;;;11.30;99.90;;;;;;5029858;28;20091;-83
2023/07/25 23:00:11;;;;;;;4.55;2.42;;;11.30;99.90;;;;;;5029552;28;20120;-83
2023/07/25 23:02:36;;;;;;;3.95;2.13;;;11.30;99.90;;;;;;5028998;28;20059;-83
2023/07/25 23:05:03;;;;;;;4.13;2.22;;;11.20;99.90;;;;;;5029062;28;20763;-83
2023/07/25 23:07:29;;;;;;;9.77;2.55;;;11.20;99.90;;;;;;5035961;28;20036;-83
2023/07/25 23:09:57;;;;;;;4.72;2.30;;;11.10;99.90;;;;;;5029062;28;20022;-83
2023/07/25 23:12:23;;;;;;;3.80;1.85;;;11.10;99.90;;;;;;5029445;28;20029;-83